Time;durP1;ratioP1;P1;durP2;ratioP2;P2;SDS_P1;SDS_P2;PMS_P1;PMS_P2;Temp;Humidity;BMP_temperature;BMP_pressure;BME280_temperature;BME280_humidity;BME280_pressure;Samples;Min_cycle;Max_cycle;Signal;HPM_P1;HPM_P2
2023/10/08 00:01:42;;;;;;;;;;;22.00;50.50;;;;;;1542066;75;2120;-63
2023/10/08 00:03:48;;;;;;;;;;;22.00;50.50;;;;;;1548911;75;1350;-64
2023/10/08 00:05:46;;;;;;;;;;;22.00;50.50;;;;;;1535422;75;1739;-63
2023/10/08 00:07:48;;;;;;;;;;;22.00;50.50;;;;;;1550815;75;858;-62
2023/10/08 00:09:51;;;;;;;;;;;22.00;50.50;;;;;;1533796;75;1153;-62
2023/10/08 00:11:54;;;;;;;;;;;22.00;50.40;;;;;;1552007;75;679;-63
2023/10/08 00:13:56;;;;;;;;;;;22.00;50.50;;;;;;1540182;75;690;-63
2023/10/08 00:15:58;;;;;;;;;;;22.00;50.40;;;;;;1544636;75;735;-63
2023/10/08 00:18:01;;;;;;;;;;;22.00;50.40;;;;;;1549977;75;1962;-64
2023/10/08 00:20:03;;;;;;;;;;;22.00;50.50;;;;;;1537343;75;1152;-63
2023/10/08 00:22:06;;;;;;;;;;;22.00;50.60;;;;;;1545957;75;717;-63
2023/10/08 00:24:09;;;;;;;;;;;22.00;50.70;;;;;;1546078;75;1516;-64
2023/10/08 00:26:12;;;;;;;;;;;22.00;50.70;;;;;;1540311;75;844;-63
2023/10/08 00:28:14;;;;;;;;;;;22.00;50.70;;;;;;1552077;75;649;-65
2023/10/08 00:30:17;;;;;;;;;;;22.00;50.70;;;;;;1555143;75;1162;-64
2023/10/08 00:32:21;;;;;;;;;;;22.00;50.70;;;;;;1549508;75;762;-65
2023/10/08 00:34:27;;;;;;;;;;;22.00;50.70;;;;;;1545694;75;2058;-65
2023/10/08 00:36:26;;;;;;;;;;;22.00;50.70;;;;;;1540037;75;1381;-64
2023/10/08 00:38:32;;;;;;;;;;;22.00;50.70;;;;;;1547824;75;1942;-65
2023/10/08 00:40:39;;;;;;;;;;;22.00;50.80;;;;;;1541934;75;1769;-64
2023/10/08 00:42:45;;;;;;;;;;;22.00;50.80;;;;;;1557090;74;683;-64
2023/10/08 00:44:50;;;;;;;;;;;22.00;50.80;;;;;;1561664;74;1946;-65
2023/10/08 00:46:51;;;;;;;;;;;22.00;50.80;;;;;;1558043;74;1511;-64
2023/10/08 00:48:58;;;;;;;;;;;22.00;50.80;;;;;;1553158;74;1049;-64
2023/10/08 00:51:15;;;;;;;;;;;22.00;50.90;;;;;;1559629;74;1153;-63
2023/10/08 00:53:01;;;;;;;;;;;22.00;50.90;;;;;;1563178;74;1647;-63
2023/10/08 00:57:07;;;;;;;;;;;22.00;50.80;;;;;;1559740;74;869;-64
2023/10/08 00:59:14;;;;;;;;;;;22.00;50.70;;;;;;1559380;74;1927;-63
2023/10/08 01:01:16;;;;;;;;;;;22.00;50.80;;;;;;1555048;74;1622;-65
2023/10/08 01:03:17;;;;;;;;;;;22.00;50.80;;;;;;1560127;74;1636;-64
2023/10/08 01:05:23;;;;;;;;;;;22.00;50.80;;;;;;1565952;74;788;-64
2023/10/08 01:07:23;;;;;;;;;;;22.00;50.80;;;;;;1560512;74;1652;-64
2023/10/08 01:09:39;;;;;;;;;;;22.00;50.80;;;;;;1560780;74;749;-65
2023/10/08 01:11:51;;;;;;;;;;;22.00;50.80;;;;;;1555959;74;709;-63
2023/10/08 01:13:50;;;;;;;;;;;22.00;50.80;;;;;;1547485;74;1515;-64
2023/10/08 01:15:52;;;;;;;;;;;22.00;50.90;;;;;;1555208;74;754;-63
2023/10/08 01:18:00;;;;;;;;;;;22.00;50.90;;;;;;1553915;74;730;-63
2023/10/08 01:20:10;;;;;;;;;;;22.00;50.80;;;;;;1547898;74;1610;-65
2023/10/08 01:22:05;;;;;;;;;;;22.00;50.90;;;;;;1558965;74;1736;-63
2023/10/08 01:24:07;;;;;;;;;;;22.00;50.90;;;;;;1557032;75;1613;-64
2023/10/08 01:26:12;;;;;;;;;;;22.00;50.90;;;;;;1552495;74;719;-62
2023/10/08 01:28:15;;;;;;;;;;;22.00;50.90;;;;;;1556739;74;899;-63
2023/10/08 01:30:20;;;;;;;;;;;22.00;50.90;;;;;;1567397;74;1158;-62
2023/10/08 01:32:22;;;;;;;;;;;22.00;51.00;;;;;;1556587;74;718;-62
2023/10/08 01:34:30;;;;;;;;;;;22.00;51.00;;;;;;1552846;74;1403;-62
2023/10/08 01:36:28;;;;;;;;;;;22.00;51.00;;;;;;1555921;74;1529;-62
2023/10/08 01:38:30;;;;;;;;;;;22.00;51.00;;;;;;1553807;74;1908;-62
2023/10/08 01:40:32;;;;;;;;;;;22.00;51.00;;;;;;1549975;75;1122;-63
2023/10/08 01:42:38;;;;;;;;;;;22.00;51.00;;;;;;1537997;75;1068;-63
2023/10/08 01:44:38;;;;;;;;;;;22.00;51.00;;;;;;1537740;75;1398;-64
2023/10/08 01:46:42;;;;;;;;;;;22.00;50.90;;;;;;1547559;75;712;-64
2023/10/08 01:48:44;;;;;;;;;;;22.00;51.00;;;;;;1550496;75;1554;-63
2023/10/08 01:50:48;;;;;;;;;;;22.00;51.00;;;;;;1539396;75;1134;-63
2023/10/08 01:52:54;;;;;;;;;;;22.00;51.10;;;;;;1545331;75;1539;-64
2023/10/08 01:54:54;;;;;;;;;;;22.00;51.00;;;;;;1539187;75;1574;-63
2023/10/08 01:56:56;;;;;;;;;;;22.00;51.00;;;;;;1545934;75;735;-63
2023/10/08 01:58:58;;;;;;;;;;;22.00;51.10;;;;;;1551607;75;1941;-63
2023/10/08 02:01:00;;;;;;;;;;;22.00;51.00;;;;;;1543657;75;1086;-62
2023/10/08 02:03:01;;;;;;;;;;;22.00;51.00;;;;;;1559192;75;1656;-63
2023/10/08 02:05:06;;;;;;;;;;;22.10;51.20;;;;;;1541004;75;782;-63
2023/10/08 02:07:12;;;;;;;;;;;22.00;51.10;;;;;;1538635;75;1132;-63
2023/10/08 02:09:13;;;;;;;;;;;22.00;51.20;;;;;;1548163;75;1709;-64
2023/10/08 02:11:15;;;;;;;;;;;22.00;51.30;;;;;;1547170;75;1124;-65
2023/10/08 02:13:17;;;;;;;;;;;22.00;51.30;;;;;;1536520;75;771;-64
2023/10/08 02:15:19;;;;;;;;;;;22.00;51.30;;;;;;1537832;75;709;-65
2023/10/08 02:17:22;;;;;;;;;;;22.00;51.30;;;;;;1539112;75;1524;-63
2023/10/08 02:19:28;;;;;;;;;;;22.00;51.30;;;;;;1539826;75;1923;-63
2023/10/08 02:21:29;;;;;;;;;;;22.00;51.30;;;;;;1541402;75;768;-63
2023/10/08 02:23:34;;;;;;;;;;;22.00;51.20;;;;;;1533226;75;683;-63
2023/10/08 02:25:37;;;;;;;;;;;22.00;51.20;;;;;;1539596;75;763;-60
2023/10/08 02:27:39;;;;;;;;;;;22.00;51.30;;;;;;1537003;75;609;-62
2023/10/08 02:29:41;;;;;;;;;;;22.00;51.30;;;;;;1558908;75;1180;-64
2023/10/08 02:31:43;;;;;;;;;;;22.00;51.30;;;;;;1537807;75;1560;-62
2023/10/08 02:33:45;;;;;;;;;;;22.00;51.30;;;;;;1552117;75;616;-63
2023/10/08 02:35:47;;;;;;;;;;;22.00;51.30;;;;;;1539850;75;662;-63
2023/10/08 02:37:49;;;;;;;;;;;22.00;51.40;;;;;;1541289;75;745;-64
2023/10/08 02:39:51;;;;;;;;;;;22.00;51.50;;;;;;1542562;75;1936;-64
2023/10/08 02:41:56;;;;;;;;;;;22.00;51.40;;;;;;1542046;74;1095;-65
2023/10/08 02:43:59;;;;;;;;;;;22.00;51.40;;;;;;1566155;74;1972;-64
2023/10/08 02:46:00;;;;;;;;;;;22.00;51.50;;;;;;1561388;74;1779;-65
2023/10/08 02:48:02;;;;;;;;;;;22.00;51.50;;;;;;1556058;74;795;-64
2023/10/08 02:50:08;;;;;;;;;;;22.00;51.50;;;;;;1562746;74;1167;-64
2023/10/08 02:52:11;;;;;;;;;;;22.10;51.60;;;;;;1546945;74;1773;-63
2023/10/08 02:54:20;;;;;;;;;;;22.00;51.60;;;;;;1558633;74;819;-63
2023/10/08 02:56:22;;;;;;;;;;;22.00;51.50;;;;;;1556244;74;773;-62
2023/10/08 02:58:27;;;;;;;;;;;22.00;51.40;;;;;;1556899;74;782;-61
2023/10/08 03:00:29;;;;;;;;;;;22.00;51.30;;;;;;1553907;74;1938;-62
2023/10/08 03:02:31;;;;;;;;;;;22.10;51.50;;;;;;1560764;74;721;-63
2023/10/08 03:04:33;;;;;;;;;;;22.00;51.50;;;;;;1557941;74;760;-63
2023/10/08 03:06:35;;;;;;;;;;;22.00;51.40;;;;;;1561681;74;708;-64
2023/10/08 03:08:40;;;;;;;;;;;22.00;51.40;;;;;;1562669;74;707;-63
2023/10/08 03:10:43;;;;;;;;;;;22.00;51.50;;;;;;1553721;74;1656;-64
2023/10/08 03:12:50;;;;;;;;;;;22.00;51.50;;;;;;1552942;74;1666;-63
2023/10/08 03:16:53;;;;;;;;;;;22.00;51.50;;;;;;1539832;75;864;-64
2023/10/08 03:18:57;;;;;;;;;;;22.00;51.50;;;;;;1559541;74;1941;-63
2023/10/08 03:21:03;;;;;;;;;;;22.00;51.60;;;;;;1551471;74;1154;-65
2023/10/08 03:23:06;;;;;;;;;;;22.00;51.50;;;;;;1554613;75;1533;-65
2023/10/08 03:25:15;;;;;;;;;;;22.10;51.60;;;;;;1562715;75;1704;-63
2023/10/08 03:27:15;;;;;;;;;;;22.00;51.40;;;;;;1548481;75;1515;-63
2023/10/08 03:29:19;;;;;;;;;;;22.10;51.50;;;;;;1561108;74;1678;-66
2023/10/08 03:31:17;;;;;;;;;;;22.10;51.50;;;;;;1553953;74;1589;-63
2023/10/08 03:33:23;;;;;;;;;;;22.00;51.50;;;;;;1562968;74;713;-64
2023/10/08 03:35:30;;;;;;;;;;;22.10;51.60;;;;;;1557383;74;705;-62
2023/10/08 03:37:41;;;;;;;;;;;22.10;51.60;;;;;;1558111;74;1228;-64
2023/10/08 03:42:06;;;;;;;;;;;22.10;51.50;;;;;;1526456;77;1621;-63
2023/10/08 03:44:05;;;;;;;;;;;22.00;51.50;;;;;;1506368;77;1758;-62
2023/10/08 03:46:07;;;;;;;;;;;22.00;51.50;;;;;;1516328;77;1669;-64
2023/10/08 03:48:15;;;;;;;;;;;22.00;51.60;;;;;;1544258;74;811;-63
2023/10/08 03:50:17;;;;;;;;;;;22.00;51.60;;;;;;1557750;75;1690;-63
2023/10/08 03:52:22;;;;;;;;;;;22.10;51.60;;;;;;1555062;74;1459;-63
2023/10/08 03:54:30;;;;;;;;;;;22.00;51.50;;;;;;1550478;74;1694;-64
2023/10/08 03:56:29;;;;;;;;;;;22.00;51.50;;;;;;1561305;74;1631;-63
2023/10/08 03:58:31;;;;;;;;;;;22.00;51.60;;;;;;1555116;74;1594;-63
2023/10/08 04:00:40;;;;;;;;;;;22.10;51.70;;;;;;1547123;74;1933;-63
2023/10/08 04:02:46;;;;;;;;;;;22.10;51.60;;;;;;1551587;74;1654;-64
2023/10/08 04:04:56;;;;;;;;;;;22.00;51.50;;;;;;1553615;75;1751;-63
2023/10/08 04:06:54;;;;;;;;;;;22.00;51.60;;;;;;1555573;74;1687;-64
2023/10/08 04:11:35;;;;;;;;;;;22.00;51.60;;;;;;1548618;74;1137;-65
2023/10/08 04:13:39;;;;;;;;;;;22.00;51.50;;;;;;1562068;74;1762;-62
2023/10/08 04:15:42;;;;;;;;;;;22.10;51.60;;;;;;1560436;74;1690;-63
2023/10/08 04:17:44;;;;;;;;;;;22.10;51.50;;;;;;1554422;74;1539;-63
2023/10/08 04:19:46;;;;;;;;;;;22.00;51.50;;;;;;1556259;74;1933;-64
2023/10/08 04:21:53;;;;;;;;;;;22.10;51.50;;;;;;1549933;74;779;-66
2023/10/08 04:23:51;;;;;;;;;;;22.10;51.60;;;;;;1551318;74;1606;-64
2023/10/08 04:25:54;;;;;;;;;;;22.00;51.50;;;;;;1567108;74;757;-65
2023/10/08 04:27:59;;;;;;;;;;;22.10;51.70;;;;;;1552606;75;703;-62
2023/10/08 04:30:01;;;;;;;;;;;22.00;51.80;;;;;;1550302;74;1150;-65
2023/10/08 04:32:12;;;;;;;;;;;22.00;51.70;;;;;;1550639;74;758;-61
2023/10/08 04:34:15;;;;;;;;;;;22.10;52.00;;;;;;1554767;74;1708;-64
2023/10/08 04:36:20;;;;;;;;;;;22.10;51.90;;;;;;1559034;74;773;-64
2023/10/08 04:38:26;;;;;;;;;;;22.10;52.10;;;;;;1553004;75;1170;-65
2023/10/08 04:40:33;;;;;;;;;;;22.10;52.00;;;;;;1560769;74;1928;-65
2023/10/08 04:42:31;;;;;;;;;;;22.10;52.10;;;;;;1556521;74;1695;-65
2023/10/08 04:44:33;;;;;;;;;;;22.10;52.10;;;;;;1523617;76;669;-64
2023/10/08 04:48:43;;;;;;;;;;;22.00;52.10;;;;;;1532539;76;864;-64
2023/10/08 04:50:45;;;;;;;;;;;22.00;52.20;;;;;;1523929;76;1197;-65
2023/10/08 04:52:58;;;;;;;;;;;22.00;52.30;;;;;;1522453;76;1537;-65
2023/10/08 04:54:54;;;;;;;;;;;22.10;52.30;;;;;;1522308;76;1704;-65
2023/10/08 04:57:00;;;;;;;;;;;22.00;52.20;;;;;;1518843;76;743;-63
2023/10/08 04:59:05;;;;;;;;;;;22.00;52.20;;;;;;1524033;76;2103;-64
2023/10/08 05:01:18;;;;;;;;;;;22.10;52.20;;;;;;1509787;76;1945;-64
2023/10/08 05:03:28;;;;;;;;;;;22.10;52.20;;;;;;1526210;76;732;-65
2023/10/08 05:05:38;;;;;;;;;;;22.00;52.20;;;;;;1525912;76;1520;-64
2023/10/08 05:10:11;;;;;;;;;;;22.00;52.30;;;;;;1521670;76;1094;-65
2023/10/08 05:13:15;;;;;;;;;;;22.00;52.60;;;;;;1517817;76;1471;-63
2023/10/08 05:16:43;;;;;;;;;;;22.10;52.40;;;;;;1513857;76;810;-64
2023/10/08 05:19:14;;;;;;;;;;;22.10;52.30;;;;;;1520646;76;1620;-65
2023/10/08 05:21:14;;;;;;;;;;;22.10;52.40;;;;;;1510829;76;1936;-64
2023/10/08 05:29:52;;;;;;;;;;;22.00;52.20;;;;;;1482109;76;1154;-64
2023/10/08 05:36:19;;;;;;;;;;;22.00;52.30;;;;;;1530612;76;1634;-64
2023/10/08 05:38:30;;;;;;;;;;;22.10;52.40;;;;;;1518446;76;1730;-64
2023/10/08 05:42:49;;;;;;;;;;;22.00;52.40;;;;;;1515503;76;1652;-64
2023/10/08 05:53:55;;;;;;;;;;;22.10;52.70;;;;;;1540815;75;786;-64
2023/10/08 05:56:16;;;;;;;;;;;22.00;52.60;;;;;;1541740;75;1432;-63
2023/10/08 05:58:13;;;;;;;;;;;22.00;52.60;;;;;;1554268;75;1539;-64
2023/10/08 06:02:48;;;;;;;;;;;22.00;52.70;;;;;;1544471;75;1200;-64
2023/10/08 06:05:09;;;;;;;;;;;22.00;52.70;;;;;;1544125;75;1729;-65
2023/10/08 06:06:57;;;;;;;;;;;22.00;52.70;;;;;;1551688;75;1510;-64
2023/10/08 06:09:21;;;;;;;;;;;22.00;52.70;;;;;;1543253;75;1482;-63
2023/10/08 06:11:27;;;;;;;;;;;22.00;52.60;;;;;;1541886;75;1750;-63
2023/10/08 06:13:29;;;;;;;;;;;22.00;52.60;;;;;;1546172;75;1647;-63
2023/10/08 06:15:36;;;;;;;;;;;22.00;52.60;;;;;;1538241;75;1671;-65
2023/10/08 06:19:40;;;;;;;;;;;22.00;52.60;;;;;;1547339;75;1933;-64
2023/10/08 06:21:42;;;;;;;;;;;22.00;52.70;;;;;;1545767;75;725;-64
2023/10/08 06:23:46;;;;;;;;;;;22.00;52.80;;;;;;1550080;75;704;-64
2023/10/08 06:25:54;;;;;;;;;;;22.00;52.80;;;;;;1547461;75;730;-64
2023/10/08 06:27:55;;;;;;;;;;;22.10;53.00;;;;;;1542325;75;1631;-64
2023/10/08 06:29:57;;;;;;;;;;;22.00;53.00;;;;;;1541269;75;1602;-65
2023/10/08 06:32:02;;;;;;;;;;;22.00;52.90;;;;;;1551115;75;722;-64
2023/10/08 06:34:03;;;;;;;;;;;22.00;53.00;;;;;;1538775;75;1327;-63
2023/10/08 06:38:14;;;;;;;;;;;22.00;52.90;;;;;;1539105;75;865;-63
2023/10/08 06:42:35;;;;;;;;;;;22.00;53.10;;;;;;1469818;79;1061;-64
2023/10/08 06:44:38;;;;;;;;;;;22.10;53.10;;;;;;1500675;74;1569;-64
2023/10/08 06:46:41;;;;;;;;;;;22.10;53.10;;;;;;1549722;75;737;-64
2023/10/08 06:48:43;;;;;;;;;;;22.10;53.20;;;;;;1545530;74;720;-62
2023/10/08 06:50:45;;;;;;;;;;;22.10;53.10;;;;;;1565296;74;1204;-64
2023/10/08 06:52:49;;;;;;;;;;;22.10;53.20;;;;;;1550279;74;806;-63
2023/10/08 06:54:53;;;;;;;;;;;22.10;53.20;;;;;;1556481;74;729;-63
2023/10/08 06:56:55;;;;;;;;;;;22.10;53.20;;;;;;1561840;74;1745;-63
2023/10/08 06:58:58;;;;;;;;;;;22.10;53.30;;;;;;1563455;74;1564;-61
2023/10/08 07:01:10;;;;;;;;;;;22.10;53.30;;;;;;1551920;74;1936;-63
2023/10/08 07:03:04;;;;;;;;;;;22.10;53.40;;;;;;1550047;74;1594;-62
2023/10/08 07:05:09;;;;;;;;;;;22.10;53.40;;;;;;1563632;74;769;-63
2023/10/08 07:07:09;;;;;;;;;;;22.10;53.40;;;;;;1561768;74;1676;-64
2023/10/08 07:09:29;;;;;;;;;;;22.10;53.50;;;;;;1557104;74;741;-65
2023/10/08 07:11:17;;;;;;;;;;;22.00;53.40;;;;;;1560745;74;1525;-65
2023/10/08 07:13:21;;;;;;;;;;;22.10;53.60;;;;;;1562069;75;1658;-65
2023/10/08 07:15:26;;;;;;;;;;;22.00;53.50;;;;;;1554777;74;757;-65
2023/10/08 07:17:36;;;;;;;;;;;22.00;53.60;;;;;;1559452;74;1647;-63
2023/10/08 07:19:37;;;;;;;;;;;22.10;53.70;;;;;;1550627;74;1695;-64
2023/10/08 07:21:44;;;;;;;;;;;22.00;53.60;;;;;;1560318;74;1920;-64
2023/10/08 07:23:59;;;;;;;;;;;22.10;53.60;;;;;;1563164;74;1669;-65
2023/10/08 07:26:11;;;;;;;;;;;22.00;53.70;;;;;;1551020;74;1296;-66
2023/10/08 07:28:13;;;;;;;;;;;22.00;53.70;;;;;;1561318;74;699;-64
2023/10/08 07:30:26;;;;;;;;;;;22.10;53.80;;;;;;1550161;74;1143;-65
2023/10/08 07:32:19;;;;;;;;;;;22.00;53.70;;;;;;1551801;74;1707;-66
2023/10/08 07:36:29;;;;;;;;;;;22.00;53.80;;;;;;1555414;74;846;-65
2023/10/08 07:38:31;;;;;;;;;;;22.00;53.70;;;;;;1550543;74;716;-65
2023/10/08 07:40:37;;;;;;;;;;;22.10;53.80;;;;;;1557325;74;1937;-65
2023/10/08 07:42:36;;;;;;;;;;;22.10;53.80;;;;;;1561324;74;2151;-63
2023/10/08 07:44:41;;;;;;;;;;;22.10;53.70;;;;;;1550604;74;1153;-65
2023/10/08 07:46:44;;;;;;;;;;;22.10;53.70;;;;;;1549980;74;783;-64
2023/10/08 07:48:46;;;;;;;;;;;22.00;53.60;;;;;;1554973;74;837;-65
2023/10/08 07:50:50;;;;;;;;;;;22.00;53.70;;;;;;1557318;74;1201;-64
2023/10/08 07:52:52;;;;;;;;;;;22.00;53.60;;;;;;1552401;74;1459;-65
2023/10/08 07:54:54;;;;;;;;;;;22.00;53.60;;;;;;1550878;74;1293;-64
2023/10/08 07:57:12;;;;;;;;;;;22.00;53.60;;;;;;1556908;74;782;-65
2023/10/08 07:59:16;;;;;;;;;;;22.00;53.50;;;;;;1568586;74;690;-65
2023/10/08 08:01:20;;;;;;;;;;;22.00;53.60;;;;;;1570615;74;1977;-62
2023/10/08 08:03:21;;;;;;;;;;;22.00;53.50;;;;;;1546091;74;1728;-65
2023/10/08 08:05:25;;;;;;;;;;;22.00;53.50;;;;;;1558644;74;738;-63
2023/10/08 08:07:26;;;;;;;;;;;22.10;53.60;;;;;;1552849;74;1114;-66
2023/10/08 08:09:28;;;;;;;;;;;22.10;53.60;;;;;;1556061;74;1514;-66
2023/10/08 08:11:30;;;;;;;;;;;22.00;53.60;;;;;;1554709;74;782;-66
2023/10/08 08:13:33;;;;;;;;;;;22.00;53.60;;;;;;1547833;74;738;-66
2023/10/08 08:15:40;;;;;;;;;;;22.00;53.70;;;;;;1555567;74;755;-66
2023/10/08 08:17:38;;;;;;;;;;;22.10;53.90;;;;;;1549545;74;1668;-65
2023/10/08 08:19:41;;;;;;;;;;;22.10;54.10;;;;;;1557999;74;1120;-64
2023/10/08 08:21:48;;;;;;;;;;;22.10;54.10;;;;;;1565012;74;1911;-68
2023/10/08 08:23:50;;;;;;;;;;;22.10;54.20;;;;;;1565568;74;1564;-64
2023/10/08 08:28:17;;;;;;;;;;;22.10;54.70;;;;;;1552747;74;908;-66
2023/10/08 08:30:18;;;;;;;;;;;22.00;54.70;;;;;;1547099;74;1312;-66
2023/10/08 08:32:21;;;;;;;;;;;22.10;55.40;;;;;;1559176;74;678;-65
2023/10/08 08:34:24;;;;;;;;;;;22.10;54.60;;;;;;1556077;74;786;-67
2023/10/08 08:36:27;;;;;;;;;;;22.10;55.90;;;;;;1558998;74;1589;-67
2023/10/08 08:38:33;;;;;;;;;;;22.20;55.00;;;;;;1545646;74;1801;-64
2023/10/08 08:40:33;;;;;;;;;;;22.20;53.00;;;;;;1545514;74;1939;-66
2023/10/08 08:42:40;;;;;;;;;;;22.20;55.20;;;;;;1551724;74;743;-65
2023/10/08 08:44:39;;;;;;;;;;;22.30;55.80;;;;;;1548069;74;1588;-65
2023/10/08 08:46:42;;;;;;;;;;;22.30;55.70;;;;;;1556622;74;741;-70
2023/10/08 08:48:44;;;;;;;;;;;22.20;54.60;;;;;;1557386;74;731;-68
2023/10/08 08:50:46;;;;;;;;;;;22.30;54.60;;;;;;1562509;74;1561;-67
2023/10/08 08:52:48;;;;;;;;;;;22.30;55.30;;;;;;1553028;74;844;-68
2023/10/08 08:54:51;;;;;;;;;;;22.30;55.60;;;;;;1551810;74;921;-66
2023/10/08 08:56:53;;;;;;;;;;;22.30;55.50;;;;;;1552582;74;795;-68
2023/10/08 08:58:55;;;;;;;;;;;22.20;54.70;;;;;;1554461;74;740;-68
2023/10/08 09:00:57;;;;;;;;;;;22.30;54.50;;;;;;1561256;74;1941;-68
2023/10/08 09:02:59;;;;;;;;;;;22.30;54.20;;;;;;1547462;74;671;-68
2023/10/08 09:05:13;;;;;;;;;;;22.20;53.90;;;;;;1556923;74;1509;-68
2023/10/08 09:07:05;;;;;;;;;;;22.20;53.80;;;;;;1553049;74;1664;-68
2023/10/08 09:09:25;;;;;;;;;;;22.20;53.60;;;;;;1553554;74;1229;-67
2023/10/08 09:11:27;;;;;;;;;;;22.20;53.40;;;;;;1556999;75;1336;-68
2023/10/08 09:13:29;;;;;;;;;;;22.20;53.20;;;;;;1562485;74;1404;-68
2023/10/08 09:15:36;;;;;;;;;;;22.10;53.00;;;;;;1558395;74;1333;-68
2023/10/08 09:17:35;;;;;;;;;;;22.20;52.90;;;;;;1548067;74;1610;-68
2023/10/08 09:19:37;;;;;;;;;;;22.20;52.70;;;;;;1550935;74;1570;-67
2023/10/08 09:21:39;;;;;;;;;;;22.10;52.60;;;;;;1551402;74;1929;-68
2023/10/08 09:23:47;;;;;;;;;;;22.10;52.50;;;;;;1562304;74;1298;-67
2023/10/08 09:25:45;;;;;;;;;;;22.10;52.40;;;;;;1562547;74;1758;-67
2023/10/08 09:27:49;;;;;;;;;;;22.10;52.30;;;;;;1554884;74;1308;-68
2023/10/08 09:29:50;;;;;;;;;;;22.10;52.20;;;;;;1560453;74;1496;-68
2023/10/08 09:31:57;;;;;;;;;;;22.10;52.10;;;;;;1550377;74;1263;-68
2023/10/08 09:33:59;;;;;;;;;;;22.10;52.00;;;;;;1553027;74;1552;-67
2023/10/08 09:36:02;;;;;;;;;;;22.10;52.10;;;;;;1526071;76;1167;-68
2023/10/08 09:38:04;;;;;;;;;;;22.10;51.90;;;;;;1517579;77;1205;-66
2023/10/08 09:40:09;;;;;;;;;;;22.10;52.00;;;;;;1564509;74;1417;-66
2023/10/08 09:42:11;;;;;;;;;;;22.10;51.90;;;;;;1562761;74;1945;-66
2023/10/08 09:44:13;;;;;;;;;;;22.10;51.80;;;;;;1562179;74;1199;-65
2023/10/08 09:46:21;;;;;;;;;;;22.10;51.80;;;;;;1560981;74;1111;-66
2023/10/08 09:48:23;;;;;;;;;;;22.10;51.70;;;;;;1559269;75;1549;-68
2023/10/08 09:50:37;;;;;;;;;;;22.10;51.80;;;;;;1564784;74;1371;-68
2023/10/08 09:52:38;;;;;;;;;;;22.10;51.70;;;;;;1558781;74;1574;-68
2023/10/08 09:54:42;;;;;;;;;;;22.10;51.70;;;;;;1570188;74;1262;-65
2023/10/08 09:56:44;;;;;;;;;;;22.10;51.60;;;;;;1563657;74;1203;-67
2023/10/08 09:58:49;;;;;;;;;;;22.10;51.70;;;;;;1563199;74;1249;-67
2023/10/08 10:00:50;;;;;;;;;;;22.10;51.60;;;;;;1562622;74;1658;-65
2023/10/08 10:02:54;;;;;;;;;;;22.10;51.60;;;;;;1557017;74;1909;-68
2023/10/08 10:04:56;;;;;;;;;;;22.00;51.50;;;;;;1570527;74;1339;-68
2023/10/08 10:07:00;;;;;;;;;;;22.00;51.40;;;;;;1565802;74;1342;-67
2023/10/08 10:09:06;;;;;;;;;;;22.10;51.60;;;;;;1563802;74;1360;-67
2023/10/08 10:11:06;;;;;;;;;;;22.10;51.50;;;;;;1562156;74;1837;-68
2023/10/08 10:13:10;;;;;;;;;;;22.00;51.50;;;;;;1569724;74;1340;-65
2023/10/08 10:15:12;;;;;;;;;;;22.10;51.50;;;;;;1563265;75;1289;-68
2023/10/08 10:17:20;;;;;;;;;;;22.10;51.50;;;;;;1564260;74;1317;-68
2023/10/08 10:19:22;;;;;;;;;;;22.10;51.40;;;;;;1561849;74;1762;-67
2023/10/08 10:21:29;;;;;;;;;;;22.00;51.30;;;;;;1563851;74;1934;-68
2023/10/08 10:23:40;;;;;;;;;;;22.10;51.30;;;;;;1566639;74;1337;-68
2023/10/08 10:25:44;;;;;;;;;;;22.10;51.40;;;;;;1557289;74;1356;-68
2023/10/08 10:27:53;;;;;;;;;;;22.00;51.30;;;;;;1566038;74;1313;-67
2023/10/08 10:29:57;;;;;;;;;;;22.10;51.40;;;;;;1565143;74;1468;-66
2023/10/08 10:32:00;;;;;;;;;;;22.10;51.40;;;;;;1564155;74;1857;-67
2023/10/08 10:34:08;;;;;;;;;;;22.00;51.40;;;;;;1563000;74;1317;-67
2023/10/08 10:36:13;;;;;;;;;;;22.00;51.30;;;;;;1562634;74;1322;-67
2023/10/08 10:38:17;;;;;;;;;;;22.00;51.20;;;;;;1557638;74;1532;-67
2023/10/08 10:40:28;;;;;;;;;;;22.10;51.30;;;;;;1569347;74;1712;-68
2023/10/08 10:42:22;;;;;;;;;;;22.00;51.20;;;;;;1563914;74;1927;-62
2023/10/08 10:44:25;;;;;;;;;;;22.10;51.30;;;;;;1559548;74;1666;-68
2023/10/08 10:46:30;;;;;;;;;;;22.00;51.20;;;;;;1556254;74;1253;-68
2023/10/08 10:48:34;;;;;;;;;;;22.00;51.30;;;;;;1549546;74;1304;-68
2023/10/08 10:50:39;;;;;;;;;;;22.10;51.40;;;;;;1549356;74;1257;-67
2023/10/08 10:52:51;;;;;;;;;;;22.10;51.40;;;;;;1552490;74;1732;-67
2023/10/08 10:54:58;;;;;;;;;;;22.00;51.30;;;;;;1554958;75;1716;-67
2023/10/08 10:57:17;;;;;;;;;;;22.00;51.30;;;;;;1543428;74;1541;-68
2023/10/08 10:59:26;;;;;;;;;;;22.00;51.40;;;;;;1550314;74;1935;-67
2023/10/08 11:01:25;;;;;;;;;;;22.00;51.40;;;;;;1557365;74;1947;-67
2023/10/08 11:03:28;;;;;;;;;;;22.00;51.50;;;;;;1558096;74;1946;-68
2023/10/08 11:05:31;;;;;;;;;;;22.10;51.50;;;;;;1559778;74;1459;-68
2023/10/08 11:07:33;;;;;;;;;;;22.00;51.40;;;;;;1548602;74;1084;-67
2023/10/08 11:09:38;;;;;;;;;;;22.00;51.40;;;;;;1549996;75;1327;-68
2023/10/08 11:11:43;;;;;;;;;;;22.10;51.50;;;;;;1561439;74;1491;-67
2023/10/08 11:13:50;;;;;;;;;;;22.00;51.50;;;;;;1552933;75;1633;-68
2023/10/08 11:15:51;;;;;;;;;;;22.10;51.50;;;;;;1557761;74;1508;-68
2023/10/08 11:17:55;;;;;;;;;;;22.00;51.50;;;;;;1545171;75;1341;-67
2023/10/08 11:19:57;;;;;;;;;;;22.00;51.50;;;;;;1552558;75;1461;-67
2023/10/08 11:21:59;;;;;;;;;;;22.00;51.50;;;;;;1554479;74;1957;-68
2023/10/08 11:26:02;;;;;;;;;;;22.10;51.70;;;;;;1593831;72;1549;-65
2023/10/08 11:28:09;;;;;;;;;;;22.10;51.60;;;;;;1570373;73;1363;-66
2023/10/08 11:30:10;;;;;;;;;;;22.10;51.60;;;;;;1569913;73;1300;-66
2023/10/08 11:32:17;;;;;;;;;;;22.10;51.60;;;;;;1560073;75;1523;-66
2023/10/08 11:34:23;;;;;;;;;;;22.00;51.50;;;;;;1553833;75;1668;-67
2023/10/08 11:36:41;;;;;;;;;;;22.10;51.60;;;;;;1563481;75;1639;-67
2023/10/08 11:38:41;;;;;;;;;;;22.10;51.70;;;;;;1553595;75;1694;-67
2023/10/08 11:40:56;;;;;;;;;;;22.10;51.70;;;;;;1561569;75;1568;-67
2023/10/08 11:42:58;;;;;;;;;;;22.10;51.60;;;;;;1556186;75;1660;-68
2023/10/08 11:44:59;;;;;;;;;;;22.10;51.70;;;;;;1552934;75;1935;-68
2023/10/08 11:47:04;;;;;;;;;;;22.00;51.50;;;;;;1554400;75;1518;-67
2023/10/08 11:49:07;;;;;;;;;;;22.00;51.50;;;;;;1553759;75;1787;-67
2023/10/08 11:51:12;;;;;;;;;;;22.10;51.60;;;;;;1526187;76;1548;-67
2023/10/08 11:53:14;;;;;;;;;;;22.00;51.50;;;;;;1556005;75;1532;-67
2023/10/08 11:55:19;;;;;;;;;;;22.00;51.50;;;;;;1556353;75;1083;-68
2023/10/08 11:57:21;;;;;;;;;;;22.00;51.50;;;;;;1564464;74;1450;-68
2023/10/08 11:59:25;;;;;;;;;;;22.00;51.50;;;;;;1558312;75;1502;-63
2023/10/08 12:01:27;;;;;;;;;;;22.10;51.50;;;;;;1558238;74;1503;-68
2023/10/08 12:03:28;;;;;;;;;;;22.00;51.50;;;;;;1554294;75;1298;-67
2023/10/08 12:05:32;;;;;;;;;;;22.00;51.50;;;;;;1562560;75;1944;-68
2023/10/08 12:07:36;;;;;;;;;;;22.00;51.50;;;;;;1555790;75;1478;-67
2023/10/08 12:09:40;;;;;;;;;;;22.00;51.40;;;;;;1558318;75;1671;-68
2023/10/08 12:11:41;;;;;;;;;;;22.10;51.50;;;;;;1555529;75;1794;-67
2023/10/08 12:13:46;;;;;;;;;;;22.00;51.40;;;;;;1556692;75;1347;-67
2023/10/08 12:15:48;;;;;;;;;;;22.00;51.50;;;;;;1553528;75;1482;-68
2023/10/08 12:18:08;;;;;;;;;;;22.00;51.50;;;;;;1549211;75;1322;-67
2023/10/08 12:19:57;;;;;;;;;;;22.10;51.50;;;;;;1554320;75;1688;-68
2023/10/08 12:22:02;;;;;;;;;;;22.10;51.50;;;;;;1551148;75;1553;-67
2023/10/08 12:24:05;;;;;;;;;;;22.00;51.50;;;;;;1554069;75;1548;-66
2023/10/08 12:26:07;;;;;;;;;;;22.10;51.50;;;;;;1551412;75;1931;-67
2023/10/08 12:28:11;;;;;;;;;;;22.00;51.50;;;;;;1543587;75;1290;-68
2023/10/08 12:30:13;;;;;;;;;;;22.00;51.50;;;;;;1545547;75;1657;-67
2023/10/08 12:32:17;;;;;;;;;;;22.00;51.40;;;;;;1541258;75;1277;-67
2023/10/08 12:34:18;;;;;;;;;;;22.00;51.40;;;;;;1555385;75;1687;-68
2023/10/08 12:36:23;;;;;;;;;;;22.00;51.50;;;;;;1534816;76;1284;-65
2023/10/08 12:38:27;;;;;;;;;;;22.10;51.50;;;;;;1546373;76;1432;-68
2023/10/08 12:40:41;;;;;;;;;;;22.00;51.50;;;;;;1540037;75;1745;-67
2023/10/08 12:42:32;;;;;;;;;;;22.10;51.60;;;;;;1536220;76;1620;-68
2023/10/08 12:44:34;;;;;;;;;;;22.00;51.60;;;;;;1555070;76;1929;-67
2023/10/08 12:46:36;;;;;;;;;;;22.00;51.50;;;;;;1543793;76;1364;-68
2023/10/08 12:48:38;;;;;;;;;;;22.00;51.50;;;;;;1547927;75;1342;-67
2023/10/08 12:50:43;;;;;;;;;;;22.00;51.50;;;;;;1547033;75;1593;-68
2023/10/08 12:52:52;;;;;;;;;;;22.00;51.50;;;;;;1545806;75;1482;-68
2023/10/08 12:54:49;;;;;;;;;;;22.00;51.40;;;;;;1541564;75;1627;-68
2023/10/08 12:56:54;;;;;;;;;;;22.00;51.40;;;;;;1541267;76;1342;-68
2023/10/08 12:58:54;;;;;;;;;;;22.00;51.40;;;;;;1545169;76;1636;-68
2023/10/08 13:01:03;;;;;;;;;;;22.00;51.50;;;;;;1545423;75;1360;-67
2023/10/08 13:03:05;;;;;;;;;;;22.00;51.60;;;;;;1545228;75;1718;-67
2023/10/08 13:05:15;;;;;;;;;;;22.00;52.00;;;;;;1549073;75;1946;-67
2023/10/08 13:07:11;;;;;;;;;;;22.00;52.30;;;;;;1539827;75;1660;-67
2023/10/08 13:09:13;;;;;;;;;;;22.10;52.30;;;;;;1540257;76;1229;-67